sensor_id;sensor_type;location;lat;lon;timestamp;pressure;altitude;pressure_sealevel;temperature;humidity
57572;BME280;44459;43.522;24.470;2023-12-22T00:02:03;98590.75;;;0.42;100.00
57572;BME280;44459;43.522;24.470;2023-12-22T00:04:29;98594.22;;;0.43;100.00
57572;BME280;44459;43.522;24.470;2023-12-22T00:06:54;98591.66;;;0.44;100.00
57572;BME280;44459;43.522;24.470;2023-12-22T00:09:20;98580.41;;;0.45;100.00
57572;BME280;44459;43.522;24.470;2023-12-22T00:11:45;98590.16;;;0.57;100.00
57572;BME280;44459;43.522;24.470;2023-12-22T00:14:11;98578.06;;;0.59;100.00
57572;BME280;44459;43.522;24.470;2023-12-22T00:16:37;98570.28;;;0.59;100.00
57572;BME280;44459;43.522;24.470;2023-12-22T00:19:03;98569.53;;;0.65;100.00
57572;BME280;44459;43.522;24.470;2023-12-22T00:21:28;98558.34;;;0.67;100.00
57572;BME280;44459;43.522;24.470;2023-12-22T00:23:54;98554.06;;;0.71;100.00
57572;BME280;44459;43.522;24.470;2023-12-22T00:26:19;98555.00;;;0.74;100.00
57572;BME280;44459;43.522;24.470;2023-12-22T00:28:45;98554.94;;;0.71;100.00
57572;BME280;44459;43.522;24.470;2023-12-22T00:31:10;98542.81;;;0.70;100.00
57572;BME280;44459;43.522;24.470;2023-12-22T00:33:38;98542.06;;;0.76;100.00
57572;BME280;44459;43.522;24.470;2023-12-22T00:36:03;98543.78;;;0.75;100.00
57572;BME280;44459;43.522;24.470;2023-12-22T00:38:29;98538.59;;;0.77;100.00
57572;BME280;44459;43.522;24.470;2023-12-22T00:40:55;98531.69;;;0.76;100.00
57572;BME280;44459;43.522;24.470;2023-12-22T00:43:20;98523.00;;;0.75;100.00
57572;BME280;44459;43.522;24.470;2023-12-22T00:45:45;98526.53;;;0.80;100.00
57572;BME280;44459;43.522;24.470;2023-12-22T00:48:11;98523.97;;;0.83;100.00
57572;BME280;44459;43.522;24.470;2023-12-22T00:50:36;98524.81;;;0.81;100.00
57572;BME280;44459;43.522;24.470;2023-12-22T00:53:02;98522.22;;;0.79;100.00
57572;BME280;44459;43.522;24.470;2023-12-22T00:55:27;98512.63;;;0.77;100.00
57572;BME280;44459;43.522;24.470;2023-12-22T00:57:52;98498.84;;;0.81;100.00
57572;BME280;44459;43.522;24.470;2023-12-22T01:00:18;98508.34;;;0.79;100.00
57572;BME280;44459;43.522;24.470;2023-12-22T01:02:43;98505.84;;;0.85;100.00
57572;BME280;44459;43.522;24.470;2023-12-22T01:05:09;98498.88;;;0.82;100.00
57572;BME280;44459;43.522;24.470;2023-12-22T01:07:35;98495.50;;;0.88;100.00
57572;BME280;44459;43.522;24.470;2023-12-22T01:10:01;98488.72;;;0.96;100.00
57572;BME280;44459;43.522;24.470;2023-12-22T01:12:27;98485.25;;;0.95;100.00
57572;BME280;44459;43.522;24.470;2023-12-22T01:14:54;98481.72;;;0.92;100.00
57572;BME280;44459;43.522;24.470;2023-12-22T01:17:19;98483.59;;;1.00;100.00
57572;BME280;44459;43.522;24.470;2023-12-22T01:19:45;98476.72;;;1.04;100.00
57572;BME280;44459;43.522;24.470;2023-12-22T01:22:10;98462.81;;;1.02;100.00
57572;BME280;44459;43.522;24.470;2023-12-22T01:24:36;98454.28;;;1.08;100.00
57572;BME280;44459;43.522;24.470;2023-12-22T01:27:05;98438.69;;;1.08;100.00
57572;BME280;44459;43.522;24.470;2023-12-22T01:29:30;98442.88;;;0.99;100.00
57572;BME280;44459;43.522;24.470;2023-12-22T01:31:55;98425.59;;;1.01;100.00
57572;BME280;44459;43.522;24.470;2023-12-22T01:34:21;98433.53;;;1.11;100.00
57572;BME280;44459;43.522;24.470;2023-12-22T01:36:46;98422.25;;;1.12;100.00
57572;BME280;44459;43.522;24.470;2023-12-22T01:39:12;98425.78;;;1.15;100.00
57572;BME280;44459;43.522;24.470;2023-12-22T01:41:37;98408.44;;;1.13;100.00
57572;BME280;44459;43.522;24.470;2023-12-22T01:44:02;98404.94;;;1.11;100.00
57572;BME280;44459;43.522;24.470;2023-12-22T01:46:28;98399.88;;;1.20;100.00
57572;BME280;44459;43.522;24.470;2023-12-22T01:48:53;98397.34;;;1.26;100.00
57572;BME280;44459;43.522;24.470;2023-12-22T01:51:19;98398.09;;;1.19;100.00
57572;BME280;44459;43.522;24.470;2023-12-22T01:53:46;98398.16;;;1.20;100.00
57572;BME280;44459;43.522;24.470;2023-12-22T01:56:11;98391.19;;;1.18;100.00
57572;BME280;44459;43.522;24.470;2023-12-22T01:58:37;98389.47;;;1.20;100.00
57572;BME280;44459;43.522;24.470;2023-12-22T02:01:03;98386.00;;;1.18;100.00
57572;BME280;44459;43.522;24.470;2023-12-22T02:03:30;98374.69;;;1.14;100.00
57572;BME280;44459;43.522;24.470;2023-12-22T02:05:55;98381.56;;;1.12;100.00
57572;BME280;44459;43.522;24.470;2023-12-22T02:08:22;98378.97;;;1.11;100.00
57572;BME280;44459;43.522;24.470;2023-12-22T02:10:49;98374.69;;;1.14;100.00
57572;BME280;44459;43.522;24.470;2023-12-22T02:13:14;98362.53;;;1.13;100.00
57572;BME280;44459;43.522;24.470;2023-12-22T02:15:40;98356.44;;;1.10;100.00
57572;BME280;44459;43.522;24.470;2023-12-22T02:18:15;98361.69;;;1.16;100.00
57572;BME280;44459;43.522;24.470;2023-12-22T02:20:41;98351.34;;;1.19;100.00
57572;BME280;44459;43.522;24.470;2023-12-22T02:23:09;98358.41;;;1.27;100.00
57572;BME280;44459;43.522;24.470;2023-12-22T02:25:34;98354.91;;;1.27;100.00
57572;BME280;44459;43.522;24.470;2023-12-22T02:28:04;98354.94;;;1.28;100.00
57572;BME280;44459;43.522;24.470;2023-12-22T02:30:38;98358.50;;;1.35;100.00
57572;BME280;44459;43.522;24.470;2023-12-22T02:33:05;98361.13;;;1.39;100.00
57572;BME280;44459;43.522;24.470;2023-12-22T02:35:33;98362.00;;;1.40;100.00
57572;BME280;44459;43.522;24.470;2023-12-22T02:38:02;98355.16;;;1.45;100.00
57572;BME280;44459;43.522;24.470;2023-12-22T02:40:29;98344.75;;;1.46;100.00
57572;BME280;44459;43.522;24.470;2023-12-22T02:42:55;98343.94;;;1.49;100.00
57572;BME280;44459;43.522;24.470;2023-12-22T02:45:21;98343.00;;;1.44;100.00
57572;BME280;44459;43.522;24.470;2023-12-22T02:47:47;98343.03;;;1.47;100.00
57572;BME280;44459;43.522;24.470;2023-12-22T02:50:14;98333.47;;;1.44;100.00
57572;BME280;44459;43.522;24.470;2023-12-22T02:52:41;98335.19;;;1.44;100.00
57572;BME280;44459;43.522;24.470;2023-12-22T02:55:06;98338.63;;;1.41;100.00
57572;BME280;44459;43.522;24.470;2023-12-22T02:57:32;98346.44;;;1.43;100.00
57572;BME280;44459;43.522;24.470;2023-12-22T02:59:57;98336.91;;;1.43;100.00
57572;BME280;44459;43.522;24.470;2023-12-22T03:02:23;98338.59;;;1.38;100.00
57572;BME280;44459;43.522;24.470;2023-12-22T03:04:49;98337.75;;;1.42;100.00
57572;BME280;44459;43.522;24.470;2023-12-22T03:07:15;98336.94;;;1.45;100.00
57572;BME280;44459;43.522;24.470;2023-12-22T03:09:41;98324.88;;;1.53;100.00
57572;BME280;44459;43.522;24.470;2023-12-22T03:12:07;98338.00;;;1.62;100.00
57572;BME280;44459;43.522;24.470;2023-12-22T03:14:33;98328.50;;;1.67;100.00
57572;BME280;44459;43.522;24.470;2023-12-22T03:17:02;98330.25;;;1.68;100.00
57572;BME280;44459;43.522;24.470;2023-12-22T03:19:28;98339.03;;;1.76;100.00
57572;BME280;44459;43.522;24.470;2023-12-22T03:21:54;98337.28;;;1.77;100.00
57572;BME280;44459;43.522;24.470;2023-12-22T03:24:19;98333.78;;;1.73;100.00
57572;BME280;44459;43.522;24.470;2023-12-22T03:26:46;98337.25;;;1.75;100.00
57572;BME280;44459;43.522;24.470;2023-12-22T03:29:11;98336.47;;;1.82;100.00
57572;BME280;44459;43.522;24.470;2023-12-22T03:31:37;98335.56;;;1.79;100.00
57572;BME280;44459;43.522;24.470;2023-12-22T03:34:02;98329.53;;;1.80;100.00
57572;BME280;44459;43.522;24.470;2023-12-22T03:36:28;98334.81;;;1.87;100.00
57572;BME280;44459;43.522;24.470;2023-12-22T03:38:53;98337.31;;;1.80;100.00
57572;BME280;44459;43.522;24.470;2023-12-22T03:41:19;98320.84;;;1.79;100.00
57572;BME280;44459;43.522;24.470;2023-12-22T03:43:44;98333.94;;;1.87;100.00
57572;BME280;44459;43.522;24.470;2023-12-22T03:46:10;98332.19;;;1.89;100.00
57572;BME280;44459;43.522;24.470;2023-12-22T03:48:35;98329.66;;;1.93;100.00
57572;BME280;44459;43.522;24.470;2023-12-22T03:51:00;98335.75;;;1.98;100.00
57572;BME280;44459;43.522;24.470;2023-12-22T03:53:26;98323.59;;;1.96;100.00
57572;BME280;44459;43.522;24.470;2023-12-22T03:55:51;98316.66;;;1.98;100.00
57572;BME280;44459;43.522;24.470;2023-12-22T03:58:17;98325.38;;;2.01;100.00
57572;BME280;44459;43.522;24.470;2023-12-22T04:00:42;98328.84;;;2.00;100.00
57572;BME280;44459;43.522;24.470;2023-12-22T04:03:07;98321.94;;;2.06;100.00
57572;BME280;44459;43.522;24.470;2023-12-22T04:05:33;98326.28;;;2.07;100.00
57572;BME280;44459;43.522;24.470;2023-12-22T04:07:58;98316.72;;;2.02;100.00
57572;BME280;44459;43.522;24.470;2023-12-22T04:10:24;98322.78;;;2.00;100.00
57572;BME280;44459;43.522;24.470;2023-12-22T04:12:49;98301.94;;;1.98;100.00
57572;BME280;44459;43.522;24.470;2023-12-22T04:15:14;98303.66;;;1.96;100.00
57572;BME280;44459;43.522;24.470;2023-12-22T04:17:40;98306.25;;;1.98;100.00
57572;BME280;44459;43.522;24.470;2023-12-22T04:20:06;98301.00;;;1.92;100.00
57572;BME280;44459;43.522;24.470;2023-12-22T04:22:32;98295.81;;;1.90;100.00
57572;BME280;44459;43.522;24.470;2023-12-22T04:24:58;98304.53;;;1.97;100.00
57572;BME280;44459;43.522;24.470;2023-12-22T04:27:23;98294.06;;;1.92;100.00
57572;BME280;44459;43.522;24.470;2023-12-22T04:29:49;98275.88;;;1.92;100.00
57572;BME280;44459;43.522;24.470;2023-12-22T04:32:14;98287.97;;;1.89;100.00
57572;BME280;44459;43.522;24.470;2023-12-22T04:34:40;98292.31;;;1.87;100.00
57572;BME280;44459;43.522;24.470;2023-12-22T04:37:05;98289.72;;;1.91;100.00
57572;BME280;44459;43.522;24.470;2023-12-22T04:39:31;98280.16;;;1.89;100.00
57572;BME280;44459;43.522;24.470;2023-12-22T04:41:56;98288.84;;;1.89;100.00
57572;BME280;44459;43.522;24.470;2023-12-22T04:44:21;98281.03;;;1.91;100.00
57572;BME280;44459;43.522;24.470;2023-12-22T04:46:47;98278.50;;;1.94;100.00
57572;BME280;44459;43.522;24.470;2023-12-22T04:49:12;98282.00;;;2.02;100.00
57572;BME280;44459;43.522;24.470;2023-12-22T04:51:38;98281.94;;;1.94;100.00
57572;BME280;44459;43.522;24.470;2023-12-22T04:54:03;98284.63;;;2.00;100.00
57572;BME280;44459;43.522;24.470;2023-12-22T04:56:28;98295.91;;;2.06;100.00
57572;BME280;44459;43.522;24.470;2023-12-22T04:58:54;98295.09;;;2.10;100.00
57572;BME280;44459;43.522;24.470;2023-12-22T05:01:19;98292.50;;;2.11;100.00
57572;BME280;44459;43.522;24.470;2023-12-22T05:03:46;98293.41;;;2.15;100.00
57572;BME280;44459;43.522;24.470;2023-12-22T05:06:11;98291.69;;;2.15;100.00
57572;BME280;44459;43.522;24.470;2023-12-22T05:08:37;98290.00;;;2.22;100.00
57572;BME280;44459;43.522;24.470;2023-12-22T05:11:02;98299.53;;;2.26;100.00
57572;BME280;44459;43.522;24.470;2023-12-22T05:13:28;98297.78;;;2.23;100.00
57572;BME280;44459;43.522;24.470;2023-12-22T05:15:53;98306.50;;;2.27;100.00
57572;BME280;44459;43.522;24.470;2023-12-22T05:18:20;98296.09;;;2.25;100.00
57572;BME280;44459;43.522;24.470;2023-12-22T05:20:46;98293.41;;;2.19;100.00
57572;BME280;44459;43.522;24.470;2023-12-22T05:23:12;98301.22;;;2.16;100.00
57572;BME280;44459;43.522;24.470;2023-12-22T05:25:37;98290.81;;;2.16;100.00
57572;BME280;44459;43.522;24.470;2023-12-22T05:28:03;98289.09;;;2.18;100.00
57572;BME280;44459;43.522;24.470;2023-12-22T05:30:28;98295.19;;;2.20;100.00
57572;BME280;44459;43.522;24.470;2023-12-22T05:32:54;98289.13;;;2.26;100.00
57572;BME280;44459;43.522;24.470;2023-12-22T05:35:20;98288.31;;;2.30;100.00
57572;BME280;44459;43.522;24.470;2023-12-22T05:37:46;98276.16;;;2.29;100.00
57572;BME280;44459;43.522;24.470;2023-12-22T05:40:13;98274.44;;;2.31;100.00
57572;BME280;44459;43.522;24.470;2023-12-22T05:42:38;98271.81;;;2.28;100.00
57572;BME280;44459;43.522;24.470;2023-12-22T05:45:04;98265.72;;;2.24;100.00
57572;BME280;44459;43.522;24.470;2023-12-22T05:47:31;98270.03;;;2.22;100.00
57572;BME280;44459;43.522;24.470;2023-12-22T05:49:57;98262.13;;;2.07;100.00
57572;BME280;44459;43.522;24.470;2023-12-22T05:52:22;98269.09;;;2.16;100.00
57572;BME280;44459;43.522;24.470;2023-12-22T05:54:47;98268.16;;;2.03;100.00
57572;BME280;44459;43.522;24.470;2023-12-22T05:57:13;98268.19;;;2.08;100.00
57572;BME280;44459;43.522;24.470;2023-12-22T05:59:39;98258.66;;;2.08;100.00
57572;BME280;44459;43.522;24.470;2023-12-22T06:02:04;98256.88;;;2.02;100.00
57572;BME280;44459;43.522;24.470;2023-12-22T06:04:29;98261.25;;;2.07;100.00
57572;BME280;44459;43.522;24.470;2023-12-22T06:06:55;98262.00;;;1.93;100.00
57572;BME280;44459;43.522;24.470;2023-12-22T06:09:21;98251.59;;;1.95;100.00
57572;BME280;44459;43.522;24.470;2023-12-22T06:11:48;98249.91;;;1.98;100.00
57572;BME280;44459;43.522;24.470;2023-12-22T06:14:14;98247.28;;;1.95;100.00
57572;BME280;44459;43.522;24.470;2023-12-22T06:16:39;98247.28;;;1.94;100.00
57572;BME280;44459;43.522;24.470;2023-12-22T06:19:05;98238.69;;;2.04;100.00
57572;BME280;44459;43.522;24.470;2023-12-22T06:21:31;98239.66;;;2.23;100.00
57572;BME280;44459;43.522;24.470;2023-12-22T06:23:56;98231.09;;;2.39;100.00
57572;BME280;44459;43.522;24.470;2023-12-22T06:26:21;98238.97;;;2.49;100.00
57572;BME280;44459;43.522;24.470;2023-12-22T06:28:47;98235.53;;;2.55;100.00
57572;BME280;44459;43.522;24.470;2023-12-22T06:31:20;98233.03;;;2.70;100.00
57572;BME280;44459;43.522;24.470;2023-12-22T06:33:49;98239.16;;;2.84;100.00
57572;BME280;44459;43.522;24.470;2023-12-22T06:36:22;98231.38;;;2.99;100.00
57572;BME280;44459;43.522;24.470;2023-12-22T06:38:48;98232.31;;;3.12;100.00
57572;BME280;44459;43.522;24.470;2023-12-22T06:41:30;98234.06;;;3.30;100.00
57572;BME280;44459;43.522;24.470;2023-12-22T06:43:57;98233.25;;;3.46;100.00
57572;BME280;44459;43.522;24.470;2023-12-22T06:46:25;98228.94;;;3.62;100.00
57572;BME280;44459;43.522;24.470;2023-12-22T06:48:51;98223.72;;;3.72;100.00
57572;BME280;44459;43.522;24.470;2023-12-22T06:51:27;98224.59;;;3.83;100.00
57572;BME280;44459;43.522;24.470;2023-12-22T06:53:54;98238.53;;;4.00;100.00
57572;BME280;44459;43.522;24.470;2023-12-22T06:56:29;98231.56;;;4.12;100.00
57572;BME280;44459;43.522;24.470;2023-12-22T06:58:56;98238.50;;;4.25;100.00
57572;BME280;44459;43.522;24.470;2023-12-22T07:01:31;98236.78;;;4.27;100.00
57572;BME280;44459;43.522;24.470;2023-12-22T07:03:57;98241.13;;;4.29;100.00
57572;BME280;44459;43.522;24.470;2023-12-22T07:06:24;98250.69;;;4.32;100.00
57572;BME280;44459;43.522;24.470;2023-12-22T07:11:24;98261.97;;;4.46;100.00
57572;BME280;44459;43.522;24.470;2023-12-22T07:13:49;98267.19;;;4.53;100.00
57572;BME280;44459;43.522;24.470;2023-12-22T07:16:15;98272.41;;;4.52;100.00
57572;BME280;44459;43.522;24.470;2023-12-22T07:18:40;98277.66;;;4.46;100.00
57572;BME280;44459;43.522;24.470;2023-12-22T07:21:06;98288.97;;;4.48;100.00
57572;BME280;44459;43.522;24.470;2023-12-22T07:23:32;98288.97;;;4.48;100.00
57572;BME280;44459;43.522;24.470;2023-12-22T07:25:58;98285.47;;;4.49;100.00
57572;BME280;44459;43.522;24.470;2023-12-22T07:28:23;98288.09;;;4.60;100.00
57572;BME280;44459;43.522;24.470;2023-12-22T07:30:49;98288.06;;;4.70;100.00
57572;BME280;44459;43.522;24.470;2023-12-22T07:33:14;98291.56;;;4.71;100.00
57572;BME280;44459;43.522;24.470;2023-12-22T07:35:39;98298.47;;;4.88;100.00
57572;BME280;44459;43.522;24.470;2023-12-22T07:38:05;98281.00;;;5.04;100.00
57572;BME280;44459;43.522;24.470;2023-12-22T07:40:30;98287.06;;;5.12;100.00
57572;BME280;44459;43.522;24.470;2023-12-22T07:42:57;98293.91;;;5.39;100.00
57572;BME280;44459;43.522;24.470;2023-12-22T07:45:22;98288.59;;;5.57;100.00
57572;BME280;44459;43.522;24.470;2023-12-22T07:47:48;98294.59;;;5.79;100.00
57572;BME280;44459;43.522;24.470;2023-12-22T07:50:13;98310.22;;;5.95;100.00
57572;BME280;44459;43.522;24.470;2023-12-22T07:52:39;98309.22;;;6.12;100.00
57572;BME280;44459;43.522;24.470;2023-12-22T07:55:08;98310.84;;;6.31;100.00
57572;BME280;44459;43.522;24.470;2023-12-22T07:57:37;98304.56;;;6.48;98.30
57572;BME280;44459;43.522;24.470;2023-12-22T08:00:04;98314.00;;;6.69;97.34
57572;BME280;44459;43.522;24.470;2023-12-22T08:02:30;98322.63;;;6.80;96.10
57572;BME280;44459;43.522;24.470;2023-12-22T08:04:55;98328.63;;;6.93;95.28
57572;BME280;44459;43.522;24.470;2023-12-22T08:07:21;98331.13;;;7.03;94.56
57572;BME280;44459;43.522;24.470;2023-12-22T08:09:46;98336.22;;;7.17;94.23
57572;BME280;44459;43.522;24.470;2023-12-22T08:12:11;98339.69;;;7.21;94.45
57572;BME280;44459;43.522;24.470;2023-12-22T08:14:37;98337.09;;;7.16;94.46
57572;BME280;44459;43.522;24.470;2023-12-22T08:17:02;98335.22;;;7.29;93.43
57572;BME280;44459;43.522;24.470;2023-12-22T08:19:28;98323.72;;;7.39;92.11
57572;BME280;44459;43.522;24.470;2023-12-22T08:21:53;98308.81;;;7.41;92.08
57572;BME280;44459;43.522;24.470;2023-12-22T08:24:22;98299.16;;;7.46;91.42
57572;BME280;44459;43.522;24.470;2023-12-22T08:26:47;98322.78;;;7.43;91.77
57572;BME280;44459;43.522;24.470;2023-12-22T08:29:13;98324.56;;;7.41;92.27
57572;BME280;44459;43.522;24.470;2023-12-22T08:31:39;98324.69;;;7.30;92.30
57572;BME280;44459;43.522;24.470;2023-12-22T08:34:04;98333.47;;;7.26;92.85
57572;BME280;44459;43.522;24.470;2023-12-22T08:36:31;98320.44;;;7.19;93.07
57572;BME280;44459;43.522;24.470;2023-12-22T08:38:57;98313.44;;;7.19;92.68
57572;BME280;44459;43.522;24.470;2023-12-22T08:41:22;98316.94;;;7.20;94.04
57572;BME280;44459;43.522;24.470;2023-12-22T08:43:48;98310.69;;;7.30;94.73
57572;BME280;44459;43.522;24.470;2023-12-22T08:46:13;98303.63;;;7.38;95.60
57572;BME280;44459;43.522;24.470;2023-12-22T08:48:39;98305.19;;;7.51;95.04
57572;BME280;44459;43.522;24.470;2023-12-22T08:51:04;98312.97;;;7.57;94.32
57572;BME280;44459;43.522;24.470;2023-12-22T08:53:30;98320.84;;;7.58;94.60
57572;BME280;44459;43.522;24.470;2023-12-22T08:55:59;98322.59;;;7.58;94.71
57572;BME280;44459;43.522;24.470;2023-12-22T08:58:26;98317.34;;;7.58;95.42
57572;BME280;44459;43.522;24.470;2023-12-22T09:00:51;98326.06;;;7.62;95.14
57572;BME280;44459;43.522;24.470;2023-12-22T09:03:17;98314.69;;;7.61;96.24
57572;BME280;44459;43.522;24.470;2023-12-22T09:05:42;98312.00;;;7.64;95.95
57572;BME280;44459;43.522;24.470;2023-12-22T09:08:07;98332.06;;;7.71;97.38
57572;BME280;44459;43.522;24.470;2023-12-22T09:10:33;98331.13;;;7.75;96.59
57572;BME280;44459;43.522;24.470;2023-12-22T09:12:58;98351.34;;;7.70;97.70
57572;BME280;44459;43.522;24.470;2023-12-22T09:15:24;98347.81;;;7.71;98.10
57572;BME280;44459;43.522;24.470;2023-12-22T09:17:51;98346.88;;;7.75;98.25
57572;BME280;44459;43.522;24.470;2023-12-22T09:20:18;98345.97;;;7.79;98.60
57572;BME280;44459;43.522;24.470;2023-12-22T09:22:43;98343.28;;;7.84;98.72
57572;BME280;44459;43.522;24.470;2023-12-22T09:25:09;98350.25;;;7.88;99.25
57572;BME280;44459;43.522;24.470;2023-12-22T09:27:34;98337.00;;;7.92;99.13
57572;BME280;44459;43.522;24.470;2023-12-22T09:30:00;98342.28;;;7.92;99.65
57572;BME280;44459;43.522;24.470;2023-12-22T09:32:25;98341.34;;;7.96;99.05
57572;BME280;44459;43.522;24.470;2023-12-22T09:34:52;98329.91;;;7.99;99.61
57572;BME280;44459;43.522;24.470;2023-12-22T09:37:17;98336.84;;;8.04;99.17
57572;BME280;44459;43.522;24.470;2023-12-22T09:39:43;98334.22;;;8.04;99.71
57572;BME280;44459;43.522;24.470;2023-12-22T09:42:08;98338.50;;;8.12;99.63
57572;BME280;44459;43.522;24.470;2023-12-22T09:44:35;98334.16;;;8.09;99.41
57572;BME280;44459;43.522;24.470;2023-12-22T09:47:04;98333.09;;;8.21;99.02
57572;BME280;44459;43.522;24.470;2023-12-22T09:49:31;98323.34;;;8.30;98.08
57572;BME280;44459;43.522;24.470;2023-12-22T09:51:57;98322.34;;;8.39;97.47
57572;BME280;44459;43.522;24.470;2023-12-22T09:54:23;98317.75;;;8.51;96.40
57572;BME280;44459;43.522;24.470;2023-12-22T09:56:50;98307.16;;;8.56;97.19
57572;BME280;44459;43.522;24.470;2023-12-22T09:59:17;98300.72;;;8.72;95.90
57572;BME280;44459;43.522;24.470;2023-12-22T10:01:44;98304.97;;;8.79;95.28
57572;BME280;44459;43.522;24.470;2023-12-22T10:04:12;98296.88;;;8.91;95.33
57572;BME280;44459;43.522;24.470;2023-12-22T10:06:37;98301.94;;;9.02;94.47
57572;BME280;44459;43.522;24.470;2023-12-22T10:09:04;98299.97;;;9.13;93.62
57572;BME280;44459;43.522;24.470;2023-12-22T10:11:32;98291.78;;;9.27;92.33
57572;BME280;44459;43.522;24.470;2023-12-22T10:13:59;98284.53;;;9.38;92.24
57572;BME280;44459;43.522;24.470;2023-12-22T10:16:25;98277.22;;;9.52;91.05
57572;BME280;44459;43.522;24.470;2023-12-22T10:18:51;98270.78;;;9.65;91.11
57572;BME280;44459;43.522;24.470;2023-12-22T10:21:17;98281.81;;;9.84;90.13
57572;BME280;44459;43.522;24.470;2023-12-22T10:23:42;98286.00;;;9.92;89.03
57572;BME280;44459;43.522;24.470;2023-12-22T10:26:11;98277.88;;;10.01;89.43
57572;BME280;44459;43.522;24.470;2023-12-22T10:28:36;98281.34;;;10.03;86.74
57572;BME280;44459;43.522;24.470;2023-12-22T10:31:02;98288.44;;;10.01;85.36
57572;BME280;44459;43.522;24.470;2023-12-22T10:33:31;98282.44;;;9.93;86.72
57572;BME280;44459;43.522;24.470;2023-12-22T10:35:58;98292.19;;;9.90;87.05
57572;BME280;44459;43.522;24.470;2023-12-22T10:38:24;98290.59;;;9.83;86.76
57572;BME280;44459;43.522;24.470;2023-12-22T10:40:50;98284.53;;;9.79;84.89
57572;BME280;44459;43.522;24.470;2023-12-22T10:43:16;98281.28;;;9.68;85.29
57572;BME280;44459;43.522;24.470;2023-12-22T10:45:42;98279.78;;;9.56;86.85
57572;BME280;44459;43.522;24.470;2023-12-22T10:48:07;98279.84;;;9.53;85.68
57572;BME280;44459;43.522;24.470;2023-12-22T10:50:33;98276.63;;;9.39;86.76
57572;BME280;44459;43.522;24.470;2023-12-22T10:52:58;98288.34;;;9.25;87.57
57572;BME280;44459;43.522;24.470;2023-12-22T10:55:24;98277.72;;;9.29;87.44
57572;BME280;44459;43.522;24.470;2023-12-22T10:57:50;98272.59;;;9.22;86.42
57572;BME280;44459;43.522;24.470;2023-12-22T11:00:16;98292.72;;;9.26;87.37
57572;BME280;44459;43.522;24.470;2023-12-22T11:02:43;98286.44;;;9.33;88.61
57572;BME280;44459;43.522;24.470;2023-12-22T11:05:10;98283.06;;;9.26;88.86
57572;BME280;44459;43.522;24.470;2023-12-22T11:07:37;98281.91;;;9.39;88.77
57572;BME280;44459;43.522;24.470;2023-12-22T11:10:07;98294.00;;;9.48;88.57
57572;BME280;44459;43.522;24.470;2023-12-22T11:12:35;98288.78;;;9.45;88.11
57572;BME280;44459;43.522;24.470;2023-12-22T11:15:02;98285.19;;;9.49;88.47
57572;BME280;44459;43.522;24.470;2023-12-22T11:17:32;98290.31;;;9.55;87.73
57572;BME280;44459;43.522;24.470;2023-12-22T11:19:58;98296.47;;;9.55;86.94
57572;BME280;44459;43.522;24.470;2023-12-22T11:22:25;98303.56;;;9.52;87.39
57572;BME280;44459;43.522;24.470;2023-12-22T11:24:51;98293.94;;;9.51;87.00
57572;BME280;44459;43.522;24.470;2023-12-22T11:27:17;98293.16;;;9.46;84.36
57572;BME280;44459;43.522;24.470;2023-12-22T11:29:48;98299.38;;;9.42;82.96
57572;BME280;44459;43.522;24.470;2023-12-22T11:32:18;98317.81;;;9.42;83.12
57572;BME280;44459;43.522;24.470;2023-12-22T11:34:45;98306.53;;;9.37;81.29
57572;BME280;44459;43.522;24.470;2023-12-22T11:37:13;98314.56;;;9.29;81.53
57572;BME280;44459;43.522;24.470;2023-12-22T11:39:42;98315.44;;;9.30;82.10
57572;BME280;44459;43.522;24.470;2023-12-22T11:42:08;98322.25;;;9.40;80.86
57572;BME280;44459;43.522;24.470;2023-12-22T11:44:35;98303.69;;;9.47;81.93
57572;BME280;44459;43.522;24.470;2023-12-22T11:47:08;98327.09;;;9.61;76.34
57572;BME280;44459;43.522;24.470;2023-12-22T11:49:35;98320.75;;;9.70;75.76
57572;BME280;44459;43.522;24.470;2023-12-22T11:52:11;98304.84;;;9.74;75.43
57572;BME280;44459;43.522;24.470;2023-12-22T11:54:47;98315.41;;;9.74;74.25
57572;BME280;44459;43.522;24.470;2023-12-22T11:59:55;98300.25;;;9.82;72.45
57572;BME280;44459;43.522;24.470;2023-12-22T12:02:21;98309.25;;;9.75;74.42
57572;BME280;44459;43.522;24.470;2023-12-22T12:04:47;98305.53;;;9.82;74.36
57572;BME280;44459;43.522;24.470;2023-12-22T12:07:38;98307.22;;;9.86;74.23
57572;BME280;44459;43.522;24.470;2023-12-22T12:10:10;98300.09;;;9.91;75.08
57572;BME280;44459;43.522;24.470;2023-12-22T12:12:36;98285.94;;;9.95;71.39
57572;BME280;44459;43.522;24.470;2023-12-22T12:15:17;98286.00;;;9.92;73.89
57572;BME280;44459;43.522;24.470;2023-12-22T12:17:42;98297.59;;;9.85;74.69
57572;BME280;44459;43.522;24.470;2023-12-22T12:20:11;98291.63;;;9.76;74.26
57572;BME280;44459;43.522;24.470;2023-12-22T12:22:37;98297.13;;;9.65;72.15
57572;BME280;44459;43.522;24.470;2023-12-22T12:25:08;98269.38;;;9.50;72.10
57572;BME280;44459;43.522;24.470;2023-12-22T12:27:37;98287.00;;;9.47;71.41
57572;BME280;44459;43.522;24.470;2023-12-22T12:30:14;98296.84;;;9.37;70.26
57572;BME280;44459;43.522;24.470;2023-12-22T12:32:43;98297.75;;;9.36;68.99
57572;BME280;44459;43.522;24.470;2023-12-22T12:35:12;98289.22;;;9.24;69.96
57572;BME280;44459;43.522;24.470;2023-12-22T12:37:38;98295.41;;;9.21;70.90
57572;BME280;44459;43.522;24.470;2023-12-22T12:40:08;98306.88;;;9.19;67.96
57572;BME280;44459;43.522;24.470;2023-12-22T12:42:36;98305.22;;;9.15;70.01
57572;BME280;44459;43.522;24.470;2023-12-22T12:45:07;98308.84;;;9.07;68.04
57572;BME280;44459;43.522;24.470;2023-12-22T12:47:32;98319.38;;;9.06;66.64
57572;BME280;44459;43.522;24.470;2023-12-22T12:49:59;98319.56;;;8.98;66.38
57572;BME280;44459;43.522;24.470;2023-12-22T12:52:25;98331.16;;;8.88;67.58
57572;BME280;44459;43.522;24.470;2023-12-22T12:54:51;98325.06;;;8.85;69.04